sensor_id;sensor_type;location;lat;lon;timestamp;P1;durP1;ratioP1;P2;durP2;ratioP2
7267;SDS011;3675;43.276;27.962;2022-07-18T00:01:05;2.38;;;2.17;;
7267;SDS011;3675;43.276;27.962;2022-07-18T00:03:30;1.92;;;1.83;;
7267;SDS011;3675;43.276;27.962;2022-07-18T00:06:00;1.77;;;1.67;;
7267;SDS011;3675;43.276;27.962;2022-07-18T00:08:26;1.50;;;1.40;;
7267;SDS011;3675;43.276;27.962;2022-07-18T00:10:52;1.52;;;1.40;;
7267;SDS011;3675;43.276;27.962;2022-07-18T00:13:17;2.08;;;1.88;;
7267;SDS011;3675;43.276;27.962;2022-07-18T00:15:42;1.75;;;1.52;;
7267;SDS011;3675;43.276;27.962;2022-07-18T00:18:13;1.13;;;1.13;;
7267;SDS011;3675;43.276;27.962;2022-07-18T00:20:39;2.80;;;1.70;;
7267;SDS011;3675;43.276;27.962;2022-07-18T00:23:57;1.65;;;1.55;;
7267;SDS011;3675;43.276;27.962;2022-07-18T00:26:22;1.88;;;1.05;;
7267;SDS011;3675;43.276;27.962;2022-07-18T00:28:47;1.13;;;1.13;;
7267;SDS011;3675;43.276;27.962;2022-07-18T00:31:13;1.17;;;1.10;;
7267;SDS011;3675;43.276;27.962;2022-07-18T00:33:38;1.00;;;1.00;;
7267;SDS011;3675;43.276;27.962;2022-07-18T00:36:03;1.95;;;1.25;;
7267;SDS011;3675;43.276;27.962;2022-07-18T00:38:29;0.98;;;0.98;;
7267;SDS011;3675;43.276;27.962;2022-07-18T00:40:54;0.95;;;0.90;;
7267;SDS011;3675;43.276;27.962;2022-07-18T00:43:19;1.10;;;1.10;;
7267;SDS011;3675;43.276;27.962;2022-07-18T00:45:47;0.82;;;0.82;;
7267;SDS011;3675;43.276;27.962;2022-07-18T00:48:12;0.55;;;0.52;;
7267;SDS011;3675;43.276;27.962;2022-07-18T00:50:38;0.80;;;0.80;;
7267;SDS011;3675;43.276;27.962;2022-07-18T00:53:04;0.90;;;0.90;;
7267;SDS011;3675;43.276;27.962;2022-07-18T00:55:30;1.75;;;1.00;;
7267;SDS011;3675;43.276;27.962;2022-07-18T00:57:56;0.75;;;0.75;;
7267;SDS011;3675;43.276;27.962;2022-07-18T01:00:21;0.60;;;0.60;;
7267;SDS011;3675;43.276;27.962;2022-07-18T01:03:05;1.15;;;0.73;;
7267;SDS011;3675;43.276;27.962;2022-07-18T01:05:31;0.80;;;0.80;;
7267;SDS011;3675;43.276;27.962;2022-07-18T01:07:56;0.70;;;0.70;;
7267;SDS011;3675;43.276;27.962;2022-07-18T01:10:21;0.88;;;0.88;;
7267;SDS011;3675;43.276;27.962;2022-07-18T01:12:50;0.70;;;0.70;;
7267;SDS011;3675;43.276;27.962;2022-07-18T01:15:16;0.70;;;0.70;;
7267;SDS011;3675;43.276;27.962;2022-07-18T01:17:41;0.77;;;0.77;;
7267;SDS011;3675;43.276;27.962;2022-07-18T01:20:06;0.55;;;0.55;;
7267;SDS011;3675;43.276;27.962;2022-07-18T01:22:32;2.42;;;0.60;;
7267;SDS011;3675;43.276;27.962;2022-07-18T01:24:58;0.65;;;0.65;;
7267;SDS011;3675;43.276;27.962;2022-07-18T01:27:23;1.77;;;0.73;;
7267;SDS011;3675;43.276;27.962;2022-07-18T01:29:50;0.50;;;0.50;;
7267;SDS011;3675;43.276;27.962;2022-07-18T01:32:15;0.68;;;0.68;;
7267;SDS011;3675;43.276;27.962;2022-07-18T01:34:41;0.68;;;0.68;;
7267;SDS011;3675;43.276;27.962;2022-07-18T01:37:07;0.60;;;0.60;;
7267;SDS011;3675;43.276;27.962;2022-07-18T01:39:33;0.98;;;0.90;;
7267;SDS011;3675;43.276;27.962;2022-07-18T01:41:59;0.85;;;0.85;;
7267;SDS011;3675;43.276;27.962;2022-07-18T01:44:25;0.70;;;0.70;;
7267;SDS011;3675;43.276;27.962;2022-07-18T01:46:50;0.70;;;0.70;;
7267;SDS011;3675;43.276;27.962;2022-07-18T01:49:16;1.40;;;0.80;;
7267;SDS011;3675;43.276;27.962;2022-07-18T01:51:45;0.70;;;0.70;;
7267;SDS011;3675;43.276;27.962;2022-07-18T01:54:11;0.70;;;0.70;;
7267;SDS011;3675;43.276;27.962;2022-07-18T01:56:36;1.75;;;1.00;;
7267;SDS011;3675;43.276;27.962;2022-07-18T01:59:02;1.30;;;0.90;;
7267;SDS011;3675;43.276;27.962;2022-07-18T02:01:28;0.63;;;0.63;;
7267;SDS011;3675;43.276;27.962;2022-07-18T02:03:53;0.80;;;0.80;;
7267;SDS011;3675;43.276;27.962;2022-07-18T02:06:18;0.65;;;0.65;;
7267;SDS011;3675;43.276;27.962;2022-07-18T02:08:43;0.73;;;0.73;;
7267;SDS011;3675;43.276;27.962;2022-07-18T02:11:09;1.48;;;0.65;;
7267;SDS011;3675;43.276;27.962;2022-07-18T02:13:34;0.70;;;0.70;;
7267;SDS011;3675;43.276;27.962;2022-07-18T02:16:04;1.90;;;0.88;;
7267;SDS011;3675;43.276;27.962;2022-07-18T02:18:32;1.15;;;0.68;;
7267;SDS011;3675;43.276;27.962;2022-07-18T02:20:58;0.95;;;0.82;;
7267;SDS011;3675;43.276;27.962;2022-07-18T02:23:24;0.60;;;0.60;;
7267;SDS011;3675;43.276;27.962;2022-07-18T02:25:49;0.70;;;0.70;;
7267;SDS011;3675;43.276;27.962;2022-07-18T02:28:14;1.55;;;1.05;;
7267;SDS011;3675;43.276;27.962;2022-07-18T02:30:40;4.90;;;1.00;;
7267;SDS011;3675;43.276;27.962;2022-07-18T02:33:05;1.13;;;1.10;;
7267;SDS011;3675;43.276;27.962;2022-07-18T02:35:30;2.50;;;0.90;;
7267;SDS011;3675;43.276;27.962;2022-07-18T02:37:56;1.08;;;0.88;;
7267;SDS011;3675;43.276;27.962;2022-07-18T02:40:21;0.60;;;0.60;;
7267;SDS011;3675;43.276;27.962;2022-07-18T02:42:47;0.70;;;0.68;;
7267;SDS011;3675;43.276;27.962;2022-07-18T02:45:12;0.80;;;0.80;;
7267;SDS011;3675;43.276;27.962;2022-07-18T02:47:38;0.63;;;0.63;;
7267;SDS011;3675;43.276;27.962;2022-07-18T02:50:03;0.60;;;0.50;;
7267;SDS011;3675;43.276;27.962;2022-07-18T02:52:29;1.23;;;1.10;;
7267;SDS011;3675;43.276;27.962;2022-07-18T02:54:54;0.93;;;0.93;;
7267;SDS011;3675;43.276;27.962;2022-07-18T02:57:21;1.02;;;0.95;;
7267;SDS011;3675;43.276;27.962;2022-07-18T02:59:47;0.95;;;0.95;;
7267;SDS011;3675;43.276;27.962;2022-07-18T03:02:12;1.00;;;0.90;;
7267;SDS011;3675;43.276;27.962;2022-07-18T03:04:37;0.80;;;0.80;;
7267;SDS011;3675;43.276;27.962;2022-07-18T03:07:03;1.05;;;0.90;;
7267;SDS011;3675;43.276;27.962;2022-07-18T03:09:28;1.20;;;1.13;;
7267;SDS011;3675;43.276;27.962;2022-07-18T03:11:54;2.10;;;0.70;;
7267;SDS011;3675;43.276;27.962;2022-07-18T03:14:19;1.63;;;1.27;;
7267;SDS011;3675;43.276;27.962;2022-07-18T03:16:45;2.97;;;1.23;;
7267;SDS011;3675;43.276;27.962;2022-07-18T03:19:10;0.60;;;0.60;;
7267;SDS011;3675;43.276;27.962;2022-07-18T03:21:36;0.60;;;0.60;;
7267;SDS011;3675;43.276;27.962;2022-07-18T03:24:01;1.33;;;1.00;;
7267;SDS011;3675;43.276;27.962;2022-07-18T03:26:26;1.42;;;1.05;;
7267;SDS011;3675;43.276;27.962;2022-07-18T03:28:52;0.77;;;0.77;;
7267;SDS011;3675;43.276;27.962;2022-07-18T03:31:17;1.40;;;0.98;;
7267;SDS011;3675;43.276;27.962;2022-07-18T03:33:42;0.68;;;0.68;;
7267;SDS011;3675;43.276;27.962;2022-07-18T03:36:08;0.80;;;0.80;;
7267;SDS011;3675;43.276;27.962;2022-07-18T03:38:33;1.20;;;0.77;;
7267;SDS011;3675;43.276;27.962;2022-07-18T03:41:01;0.65;;;0.65;;
7267;SDS011;3675;43.276;27.962;2022-07-18T03:43:27;0.70;;;0.70;;
7267;SDS011;3675;43.276;27.962;2022-07-18T03:45:52;0.60;;;0.60;;
7267;SDS011;3675;43.276;27.962;2022-07-18T03:48:17;3.80;;;0.80;;
7267;SDS011;3675;43.276;27.962;2022-07-18T03:50:43;3.10;;;0.52;;
7267;SDS011;3675;43.276;27.962;2022-07-18T03:53:08;0.90;;;0.90;;
7267;SDS011;3675;43.276;27.962;2022-07-18T03:55:33;1.25;;;0.80;;
7267;SDS011;3675;43.276;27.962;2022-07-18T03:57:58;0.52;;;0.52;;
7267;SDS011;3675;43.276;27.962;2022-07-18T04:00:24;3.33;;;0.85;;
7267;SDS011;3675;43.276;27.962;2022-07-18T04:02:49;1.17;;;0.63;;
7267;SDS011;3675;43.276;27.962;2022-07-18T04:05:14;0.90;;;0.90;;
7267;SDS011;3675;43.276;27.962;2022-07-18T04:07:40;3.17;;;0.80;;
7267;SDS011;3675;43.276;27.962;2022-07-18T04:10:06;0.70;;;0.70;;
7267;SDS011;3675;43.276;27.962;2022-07-18T04:12:32;0.75;;;0.75;;
7267;SDS011;3675;43.276;27.962;2022-07-18T04:14:57;2.08;;;0.70;;
7267;SDS011;3675;43.276;27.962;2022-07-18T04:17:23;0.63;;;0.63;;
7267;SDS011;3675;43.276;27.962;2022-07-18T04:19:48;0.60;;;0.50;;
7267;SDS011;3675;43.276;27.962;2022-07-18T04:22:13;0.73;;;0.60;;
7267;SDS011;3675;43.276;27.962;2022-07-18T04:24:39;0.55;;;0.55;;
7267;SDS011;3675;43.276;27.962;2022-07-18T04:27:04;1.98;;;1.02;;
7267;SDS011;3675;43.276;27.962;2022-07-18T04:29:29;0.77;;;0.77;;
7267;SDS011;3675;43.276;27.962;2022-07-18T04:31:57;2.08;;;0.90;;
7267;SDS011;3675;43.276;27.962;2022-07-18T04:34:22;0.60;;;0.60;;
7267;SDS011;3675;43.276;27.962;2022-07-18T04:36:47;0.77;;;0.75;;
7267;SDS011;3675;43.276;27.962;2022-07-18T04:39:12;0.90;;;0.90;;
7267;SDS011;3675;43.276;27.962;2022-07-18T04:41:38;1.30;;;0.60;;
7267;SDS011;3675;43.276;27.962;2022-07-18T04:44:04;1.50;;;0.70;;
7267;SDS011;3675;43.276;27.962;2022-07-18T04:46:29;0.57;;;0.57;;
7267;SDS011;3675;43.276;27.962;2022-07-18T04:48:55;0.70;;;0.60;;
7267;SDS011;3675;43.276;27.962;2022-07-18T04:51:20;0.80;;;0.80;;
7267;SDS011;3675;43.276;27.962;2022-07-18T04:53:45;0.40;;;0.40;;
7267;SDS011;3675;43.276;27.962;2022-07-18T04:56:11;0.95;;;0.88;;
7267;SDS011;3675;43.276;27.962;2022-07-18T04:58:36;0.95;;;0.82;;
7267;SDS011;3675;43.276;27.962;2022-07-18T05:01:01;0.70;;;0.70;;
7267;SDS011;3675;43.276;27.962;2022-07-18T05:03:26;3.92;;;0.80;;
7267;SDS011;3675;43.276;27.962;2022-07-18T05:05:52;0.95;;;0.73;;
7267;SDS011;3675;43.276;27.962;2022-07-18T05:08:17;0.63;;;0.63;;
7267;SDS011;3675;43.276;27.962;2022-07-18T05:10:43;1.75;;;0.85;;
7267;SDS011;3675;43.276;27.962;2022-07-18T05:13:08;0.50;;;0.50;;
7267;SDS011;3675;43.276;27.962;2022-07-18T05:15:34;0.80;;;0.80;;
7267;SDS011;3675;43.276;27.962;2022-07-18T05:17:59;0.65;;;0.65;;
7267;SDS011;3675;43.276;27.962;2022-07-18T05:20:25;1.10;;;0.47;;
7267;SDS011;3675;43.276;27.962;2022-07-18T05:22:51;0.50;;;0.50;;
7267;SDS011;3675;43.276;27.962;2022-07-18T05:25:16;0.65;;;0.65;;
7267;SDS011;3675;43.276;27.962;2022-07-18T05:27:42;0.65;;;0.65;;
7267;SDS011;3675;43.276;27.962;2022-07-18T05:30:08;0.65;;;0.65;;
7267;SDS011;3675;43.276;27.962;2022-07-18T05:32:35;0.60;;;0.60;;
7267;SDS011;3675;43.276;27.962;2022-07-18T05:35:01;2.05;;;0.80;;
7267;SDS011;3675;43.276;27.962;2022-07-18T05:37:26;0.30;;;0.30;;
7267;SDS011;3675;43.276;27.962;2022-07-18T05:39:53;2.70;;;0.50;;
7267;SDS011;3675;43.276;27.962;2022-07-18T05:42:18;0.68;;;0.30;;
7267;SDS011;3675;43.276;27.962;2022-07-18T05:44:44;0.50;;;0.50;;
7267;SDS011;3675;43.276;27.962;2022-07-18T05:47:09;1.10;;;0.90;;
7267;SDS011;3675;43.276;27.962;2022-07-18T05:49:34;0.80;;;0.55;;
7267;SDS011;3675;43.276;27.962;2022-07-18T05:52:00;2.42;;;0.43;;
7267;SDS011;3675;43.276;27.962;2022-07-18T05:54:25;0.30;;;0.30;;
7267;SDS011;3675;43.276;27.962;2022-07-18T05:56:51;0.43;;;0.43;;
7267;SDS011;3675;43.276;27.962;2022-07-18T05:59:17;0.40;;;0.40;;
7267;SDS011;3675;43.276;27.962;2022-07-18T06:01:43;0.45;;;0.45;;
7267;SDS011;3675;43.276;27.962;2022-07-18T06:04:08;2.42;;;0.73;;
7267;SDS011;3675;43.276;27.962;2022-07-18T06:06:34;0.55;;;0.55;;
7267;SDS011;3675;43.276;27.962;2022-07-18T06:08:59;0.35;;;0.35;;
7267;SDS011;3675;43.276;27.962;2022-07-18T06:11:25;0.47;;;0.47;;
7267;SDS011;3675;43.276;27.962;2022-07-18T06:13:50;1.25;;;0.35;;
7267;SDS011;3675;43.276;27.962;2022-07-18T06:16:20;0.60;;;0.60;;
7267;SDS011;3675;43.276;27.962;2022-07-18T06:18:46;0.30;;;0.30;;
7267;SDS011;3675;43.276;27.962;2022-07-18T06:21:11;1.02;;;0.45;;
7267;SDS011;3675;43.276;27.962;2022-07-18T06:23:37;0.60;;;0.60;;
7267;SDS011;3675;43.276;27.962;2022-07-18T06:26:02;0.90;;;0.43;;
7267;SDS011;3675;43.276;27.962;2022-07-18T06:28:28;3.03;;;0.90;;
7267;SDS011;3675;43.276;27.962;2022-07-18T06:30:56;0.35;;;0.30;;
7267;SDS011;3675;43.276;27.962;2022-07-18T06:33:21;0.63;;;0.60;;
7267;SDS011;3675;43.276;27.962;2022-07-18T06:35:47;0.40;;;0.40;;
7267;SDS011;3675;43.276;27.962;2022-07-18T06:38:16;0.55;;;0.55;;
7267;SDS011;3675;43.276;27.962;2022-07-18T06:40:41;0.47;;;0.47;;
7267;SDS011;3675;43.276;27.962;2022-07-18T06:43:07;0.43;;;0.40;;
7267;SDS011;3675;43.276;27.962;2022-07-18T06:45:32;0.40;;;0.30;;
7267;SDS011;3675;43.276;27.962;2022-07-18T06:47:58;0.38;;;0.38;;
7267;SDS011;3675;43.276;27.962;2022-07-18T06:50:23;0.20;;;0.20;;
7267;SDS011;3675;43.276;27.962;2022-07-18T06:52:49;0.50;;;0.50;;
7267;SDS011;3675;43.276;27.962;2022-07-18T06:55:14;0.47;;;0.47;;
7267;SDS011;3675;43.276;27.962;2022-07-18T06:57:40;0.35;;;0.35;;
7267;SDS011;3675;43.276;27.962;2022-07-18T07:00:06;2.85;;;0.40;;
7267;SDS011;3675;43.276;27.962;2022-07-18T07:02:33;1.83;;;0.98;;
7267;SDS011;3675;43.276;27.962;2022-07-18T07:04:58;3.42;;;0.65;;
7267;SDS011;3675;43.276;27.962;2022-07-18T07:07:24;8.07;;;1.27;;
7267;SDS011;3675;43.276;27.962;2022-07-18T07:09:49;0.30;;;0.30;;
7267;SDS011;3675;43.276;27.962;2022-07-18T07:12:14;0.55;;;0.50;;
7267;SDS011;3675;43.276;27.962;2022-07-18T07:14:40;0.20;;;0.20;;
7267;SDS011;3675;43.276;27.962;2022-07-18T07:17:05;0.32;;;0.32;;
7267;SDS011;3675;43.276;27.962;2022-07-18T07:19:30;3.08;;;0.68;;
7267;SDS011;3675;43.276;27.962;2022-07-18T07:21:56;1.67;;;0.63;;
7267;SDS011;3675;43.276;27.962;2022-07-18T07:24:21;1.20;;;0.88;;
7267;SDS011;3675;43.276;27.962;2022-07-18T07:26:46;0.60;;;0.45;;
7267;SDS011;3675;43.276;27.962;2022-07-18T07:29:12;0.50;;;0.50;;
7267;SDS011;3675;43.276;27.962;2022-07-18T07:31:37;0.20;;;0.20;;
7267;SDS011;3675;43.276;27.962;2022-07-18T07:34:03;1.27;;;0.57;;
7267;SDS011;3675;43.276;27.962;2022-07-18T07:36:28;0.30;;;0.30;;
7267;SDS011;3675;43.276;27.962;2022-07-18T07:38:54;0.30;;;0.30;;
7267;SDS011;3675;43.276;27.962;2022-07-18T07:41:20;0.43;;;0.20;;
7267;SDS011;3675;43.276;27.962;2022-07-18T07:43:48;0.30;;;0.30;;
7267;SDS011;3675;43.276;27.962;2022-07-18T07:46:13;0.50;;;0.50;;
7267;SDS011;3675;43.276;27.962;2022-07-18T07:48:39;0.20;;;0.20;;
7267;SDS011;3675;43.276;27.962;2022-07-18T07:51:04;0.38;;;0.38;;
7267;SDS011;3675;43.276;27.962;2022-07-18T07:53:30;0.13;;;0.13;;
7267;SDS011;3675;43.276;27.962;2022-07-18T07:55:59;0.30;;;0.30;;
7267;SDS011;3675;43.276;27.962;2022-07-18T07:58:27;4.10;;;0.35;;
7267;SDS011;3675;43.276;27.962;2022-07-18T08:00:53;0.43;;;0.40;;
7267;SDS011;3675;43.276;27.962;2022-07-18T08:03:18;0.32;;;0.32;;
7267;SDS011;3675;43.276;27.962;2022-07-18T08:05:45;0.25;;;0.25;;
7267;SDS011;3675;43.276;27.962;2022-07-18T08:08:13;0.22;;;0.22;;
7267;SDS011;3675;43.276;27.962;2022-07-18T08:10:39;2.15;;;0.95;;
7267;SDS011;3675;43.276;27.962;2022-07-18T08:13:04;0.30;;;0.30;;
7267;SDS011;3675;43.276;27.962;2022-07-18T08:15:29;0.90;;;0.40;;
7267;SDS011;3675;43.276;27.962;2022-07-18T08:17:55;0.68;;;0.68;;
7267;SDS011;3675;43.276;27.962;2022-07-18T08:20:21;0.85;;;0.30;;
7267;SDS011;3675;43.276;27.962;2022-07-18T08:25:18;0.52;;;0.40;;
7267;SDS011;3675;43.276;27.962;2022-07-18T08:27:44;4.40;;;0.40;;
7267;SDS011;3675;43.276;27.962;2022-07-18T08:30:09;0.55;;;0.52;;
7267;SDS011;3675;43.276;27.962;2022-07-18T08:32:35;0.40;;;0.40;;
7267;SDS011;3675;43.276;27.962;2022-07-18T08:35:00;0.57;;;0.52;;
7267;SDS011;3675;43.276;27.962;2022-07-18T08:37:25;0.43;;;0.43;;
7267;SDS011;3675;43.276;27.962;2022-07-18T08:39:51;0.90;;;0.40;;
7267;SDS011;3675;43.276;27.962;2022-07-18T08:42:16;0.25;;;0.25;;
7267;SDS011;3675;43.276;27.962;2022-07-18T08:44:43;2.08;;;0.30;;
7267;SDS011;3675;43.276;27.962;2022-07-18T08:47:09;3.35;;;0.52;;
7267;SDS011;3675;43.276;27.962;2022-07-18T08:49:35;0.70;;;0.70;;
7267;SDS011;3675;43.276;27.962;2022-07-18T08:52:02;0.52;;;0.52;;
7267;SDS011;3675;43.276;27.962;2022-07-18T08:54:27;0.60;;;0.32;;
7267;SDS011;3675;43.276;27.962;2022-07-18T08:56:52;0.40;;;0.40;;
7267;SDS011;3675;43.276;27.962;2022-07-18T08:59:18;0.30;;;0.30;;
7267;SDS011;3675;43.276;27.962;2022-07-18T09:01:43;0.50;;;0.50;;
7267;SDS011;3675;43.276;27.962;2022-07-18T09:04:09;1.08;;;0.45;;
7267;SDS011;3675;43.276;27.962;2022-07-18T09:06:45;0.30;;;0.30;;
7267;SDS011;3675;43.276;27.962;2022-07-18T09:09:12;0.85;;;0.40;;
7267;SDS011;3675;43.276;27.962;2022-07-18T09:11:48;0.20;;;0.20;;
7267;SDS011;3675;43.276;27.962;2022-07-18T09:17:13;0.60;;;0.50;;
7267;SDS011;3675;43.276;27.962;2022-07-18T09:19:40;0.38;;;0.38;;
7267;SDS011;3675;43.276;27.962;2022-07-18T09:22:19;0.35;;;0.35;;
7267;SDS011;3675;43.276;27.962;2022-07-18T09:24:48;2.78;;;0.45;;
7267;SDS011;3675;43.276;27.962;2022-07-18T09:27:56;0.45;;;0.45;;
7267;SDS011;3675;43.276;27.962;2022-07-18T09:32:45;0.40;;;0.40;;
7267;SDS011;3675;43.276;27.962;2022-07-18T09:35:11;1.27;;;0.85;;
7267;SDS011;3675;43.276;27.962;2022-07-18T09:37:37;1.83;;;0.60;;
7267;SDS011;3675;43.276;27.962;2022-07-18T09:40:17;0.63;;;0.43;;
7267;SDS011;3675;43.276;27.962;2022-07-18T09:42:43;0.65;;;0.43;;
7267;SDS011;3675;43.276;27.962;2022-07-18T09:45:08;2.15;;;0.50;;
7267;SDS011;3675;43.276;27.962;2022-07-18T09:47:53;2.08;;;0.50;;
7267;SDS011;3675;43.276;27.962;2022-07-18T09:50:20;0.47;;;0.47;;
7267;SDS011;3675;43.276;27.962;2022-07-18T09:52:54;0.40;;;0.40;;
7267;SDS011;3675;43.276;27.962;2022-07-18T09:55:20;0.30;;;0.30;;
7267;SDS011;3675;43.276;27.962;2022-07-18T09:57:45;0.40;;;0.40;;
7267;SDS011;3675;43.276;27.962;2022-07-18T10:00:21;0.50;;;0.50;;
7267;SDS011;3675;43.276;27.962;2022-07-18T10:02:46;0.50;;;0.50;;
7267;SDS011;3675;43.276;27.962;2022-07-18T10:05:12;0.60;;;0.60;;
7267;SDS011;3675;43.276;27.962;2022-07-18T10:07:38;0.30;;;0.30;;
7267;SDS011;3675;43.276;27.962;2022-07-18T10:10:03;0.40;;;0.40;;
7267;SDS011;3675;43.276;27.962;2022-07-18T10:12:29;0.30;;;0.30;;
7267;SDS011;3675;43.276;27.962;2022-07-18T10:14:55;0.40;;;0.40;;
7267;SDS011;3675;43.276;27.962;2022-07-18T10:17:21;1.27;;;0.47;;
7267;SDS011;3675;43.276;27.962;2022-07-18T10:19:48;1.88;;;0.45;;
7267;SDS011;3675;43.276;27.962;2022-07-18T10:22:13;0.55;;;0.40;;
7267;SDS011;3675;43.276;27.962;2022-07-18T10:24:39;0.30;;;0.30;;
7267;SDS011;3675;43.276;27.962;2022-07-18T10:27:19;0.52;;;0.52;;
7267;SDS011;3675;43.276;27.962;2022-07-18T10:32:31;0.30;;;0.30;;
7267;SDS011;3675;43.276;27.962;2022-07-18T10:34:58;0.30;;;0.30;;
7267;SDS011;3675;43.276;27.962;2022-07-18T10:37:24;0.57;;;0.40;;
7267;SDS011;3675;43.276;27.962;2022-07-18T10:39:49;1.05;;;0.60;;
7267;SDS011;3675;43.276;27.962;2022-07-18T10:42:15;0.60;;;0.60;;
7267;SDS011;3675;43.276;27.962;2022-07-18T10:44:43;2.15;;;0.50;;
7267;SDS011;3675;43.276;27.962;2022-07-18T11:22:54;0.47;;;0.40;;
7267;SDS011;3675;43.276;27.962;2022-07-18T11:25:19;0.32;;;0.32;;
7267;SDS011;3675;43.276;27.962;2022-07-18T11:27:45;0.60;;;0.47;;
7267;SDS011;3675;43.276;27.962;2022-07-18T11:30:18;0.40;;;0.40;;
7267;SDS011;3675;43.276;27.962;2022-07-18T11:32:43;0.43;;;0.40;;
7267;SDS011;3675;43.276;27.962;2022-07-18T11:35:08;2.63;;;0.40;;
7267;SDS011;3675;43.276;27.962;2022-07-18T11:37:38;0.30;;;0.30;;
7267;SDS011;3675;43.276;27.962;2022-07-18T11:40:11;0.43;;;0.43;;
7267;SDS011;3675;43.276;27.962;2022-07-18T11:42:37;1.48;;;0.30;;
7267;SDS011;3675;43.276;27.962;2022-07-18T11:45:08;0.40;;;0.40;;
7267;SDS011;3675;43.276;27.962;2022-07-18T11:47:59;0.90;;;0.50;;
7267;SDS011;3675;43.276;27.962;2022-07-18T11:50:26;0.50;;;0.50;;
7267;SDS011;3675;43.276;27.962;2022-07-18T11:53:01;0.50;;;0.50;;
7267;SDS011;3675;43.276;27.962;2022-07-18T11:55:34;0.88;;;0.47;;
7267;SDS011;3675;43.276;27.962;2022-07-18T11:58:08;1.13;;;0.50;;
7267;SDS011;3675;43.276;27.962;2022-07-18T12:00:34;0.52;;;0.52;;
7267;SDS011;3675;43.276;27.962;2022-07-18T12:03:07;0.50;;;0.50;;
7267;SDS011;3675;43.276;27.962;2022-07-18T12:05:33;0.45;;;0.30;;
7267;SDS011;3675;43.276;27.962;2022-07-18T12:07:59;0.50;;;0.50;;
7267;SDS011;3675;43.276;27.962;2022-07-18T12:10:24;0.63;;;0.57;;
7267;SDS011;3675;43.276;27.962;2022-07-18T12:12:49;0.98;;;0.50;;
7267;SDS011;3675;43.276;27.962;2022-07-18T12:15:15;0.30;;;0.30;;
7267;SDS011;3675;43.276;27.962;2022-07-18T12:17:46;0.80;;;0.40;;
7267;SDS011;3675;43.276;27.962;2022-07-18T12:20:13;1.38;;;0.63;;
7267;SDS011;3675;43.276;27.962;2022-07-18T12:25:46;0.55;;;0.52;;
7267;SDS011;3675;43.276;27.962;2022-07-18T12:28:17;0.25;;;0.25;;
7267;SDS011;3675;43.276;27.962;2022-07-18T12:30:46;1.05;;;0.50;;
7267;SDS011;3675;43.276;27.962;2022-07-18T12:33:14;0.30;;;0.30;;
7267;SDS011;3675;43.276;27.962;2022-07-18T12:35:40;0.20;;;0.20;;
7267;SDS011;3675;43.276;27.962;2022-07-18T12:38:33;0.50;;;0.50;;
7267;SDS011;3675;43.276;27.962;2022-07-18T12:40:59;0.30;;;0.30;;
7267;SDS011;3675;43.276;27.962;2022-07-18T12:43:29;0.32;;;0.32;;
7267;SDS011;3675;43.276;27.962;2022-07-18T12:45:56;0.70;;;0.60;;
7267;SDS011;3675;43.276;27.962;2022-07-18T12:48:22;0.35;;;0.35;;
7267;SDS011;3675;43.276;27.962;2022-07-18T12:50:58;0.30;;;0.30;;
7267;SDS011;3675;43.276;27.962;2022-07-18T12:53:26;0.60;;;0.30;;
7267;SDS011;3675;43.276;27.962;2022-07-18T12:55:54;0.45;;;0.40;;
7267;SDS011;3675;43.276;27.962;2022-07-18T12:58:20;0.40;;;0.40;;
7267;SDS011;3675;43.276;27.962;2022-07-18T13:00:46;0.25;;;0.22;;
7267;SDS011;3675;43.276;27.962;2022-07-18T13:03:24;0.20;;;0.20;;
7267;SDS011;3675;43.276;27.962;2022-07-18T13:05:55;0.75;;;0.50;;
7267;SDS011;3675;43.276;27.962;2022-07-18T13:08:21;0.40;;;0.40;;
7267;SDS011;3675;43.276;27.962;2022-07-18T13:10:48;1.63;;;0.73;;
7267;SDS011;3675;43.276;27.962;2022-07-18T13:13:16;2.72;;;0.30;;
7267;SDS011;3675;43.276;27.962;2022-07-18T13:15:44;0.40;;;0.40;;
7267;SDS011;3675;43.276;27.962;2022-07-18T13:18:10;0.30;;;0.30;;
7267;SDS011;3675;43.276;27.962;2022-07-18T13:20:35;0.50;;;0.50;;
7267;SDS011;3675;43.276;27.962;2022-07-18T13:23:01;0.77;;;0.70;;
7267;SDS011;3675;43.276;27.962;2022-07-18T13:25:29;0.60;;;0.60;;
7267;SDS011;3675;43.276;27.962;2022-07-18T13:27:54;0.82;;;0.38;;
7267;SDS011;3675;43.276;27.962;2022-07-18T13:30:20;0.60;;;0.60;;
7267;SDS011;3675;43.276;27.962;2022-07-18T13:32:45;2.72;;;0.35;;
7267;SDS011;3675;43.276;27.962;2022-07-18T13:35:12;0.80;;;0.57;;
7267;SDS011;3675;43.276;27.962;2022-07-18T13:37:39;0.30;;;0.30;;
7267;SDS011;3675;43.276;27.962;2022-07-18T13:40:04;3.05;;;0.38;;
7267;SDS011;3675;43.276;27.962;2022-07-18T13:42:31;0.60;;;0.60;;
7267;SDS011;3675;43.276;27.962;2022-07-18T13:44:57;0.60;;;0.60;;
7267;SDS011;3675;43.276;27.962;2022-07-18T13:47:24;0.45;;;0.45;;
7267;SDS011;3675;43.276;27.962;2022-07-18T13:49:49;4.13;;;0.50;;
7267;SDS011;3675;43.276;27.962;2022-07-18T13:52:18;0.40;;;0.40;;
7267;SDS011;3675;43.276;27.962;2022-07-18T13:54:44;1.02;;;0.30;;
7267;SDS011;3675;43.276;27.962;2022-07-18T13:57:10;0.82;;;0.82;;
7267;SDS011;3675;43.276;27.962;2022-07-18T13:59:37;0.40;;;0.40;;
7267;SDS011;3675;43.276;27.962;2022-07-18T14:02:03;0.40;;;0.40;;
7267;SDS011;3675;43.276;27.962;2022-07-18T14:04:29;1.98;;;0.60;;
7267;SDS011;3675;43.276;27.962;2022-07-18T14:06:54;0.40;;;0.40;;
7267;SDS011;3675;43.276;27.962;2022-07-18T14:09:20;0.30;;;0.30;;
7267;SDS011;3675;43.276;27.962;2022-07-18T14:11:45;0.52;;;0.52;;
7267;SDS011;3675;43.276;27.962;2022-07-18T14:14:14;5.68;;;0.50;;
7267;SDS011;3675;43.276;27.962;2022-07-18T14:16:39;0.57;;;0.40;;
7267;SDS011;3675;43.276;27.962;2022-07-18T14:19:13;0.68;;;0.40;;
7267;SDS011;3675;43.276;27.962;2022-07-18T14:21:47;0.57;;;0.57;;
7267;SDS011;3675;43.276;27.962;2022-07-18T14:24:13;1.30;;;0.40;;
7267;SDS011;3675;43.276;27.962;2022-07-18T14:26:39;0.52;;;0.52;;
7267;SDS011;3675;43.276;27.962;2022-07-18T14:29:08;3.72;;;0.80;;
7267;SDS011;3675;43.276;27.962;2022-07-18T14:31:33;0.55;;;0.50;;
7267;SDS011;3675;43.276;27.962;2022-07-18T14:34:02;0.30;;;0.30;;
7267;SDS011;3675;43.276;27.962;2022-07-18T14:36:27;0.30;;;0.30;;
7267;SDS011;3675;43.276;27.962;2022-07-18T14:38:53;0.40;;;0.40;;
7267;SDS011;3675;43.276;27.962;2022-07-18T14:41:19;2.05;;;0.63;;
7267;SDS011;3675;43.276;27.962;2022-07-18T14:43:44;0.63;;;0.50;;
7267;SDS011;3675;43.276;27.962;2022-07-18T14:46:10;0.93;;;0.52;;
7267;SDS011;3675;43.276;27.962;2022-07-18T14:48:35;0.45;;;0.45;;
7267;SDS011;3675;43.276;27.962;2022-07-18T14:51:20;0.25;;;0.25;;
7267;SDS011;3675;43.276;27.962;2022-07-18T14:53:48;3.90;;;0.55;;
7267;SDS011;3675;43.276;27.962;2022-07-18T14:56:14;0.57;;;0.55;;
7267;SDS011;3675;43.276;27.962;2022-07-18T14:58:40;0.38;;;0.38;;
7267;SDS011;3675;43.276;27.962;2022-07-18T15:01:06;0.85;;;0.50;;
7267;SDS011;3675;43.276;27.962;2022-07-18T15:03:31;0.50;;;0.50;;
7267;SDS011;3675;43.276;27.962;2022-07-18T15:06:00;0.47;;;0.47;;
7267;SDS011;3675;43.276;27.962;2022-07-18T15:08:25;0.40;;;0.40;;
7267;SDS011;3675;43.276;27.962;2022-07-18T15:10:51;1.20;;;0.57;;
7267;SDS011;3675;43.276;27.962;2022-07-18T15:13:16;0.35;;;0.35;;
7267;SDS011;3675;43.276;27.962;2022-07-18T15:15:46;0.60;;;0.60;;
7267;SDS011;3675;43.276;27.962;2022-07-18T15:18:13;0.40;;;0.40;;
7267;SDS011;3675;43.276;27.962;2022-07-18T15:20:43;0.52;;;0.52;;
7267;SDS011;3675;43.276;27.962;2022-07-18T15:23:08;0.45;;;0.45;;
7267;SDS011;3675;43.276;27.962;2022-07-18T15:25:34;0.40;;;0.40;;
7267;SDS011;3675;43.276;27.962;2022-07-18T15:27:59;0.50;;;0.50;;
7267;SDS011;3675;43.276;27.962;2022-07-18T15:30:27;0.32;;;0.32;;
7267;SDS011;3675;43.276;27.962;2022-07-18T15:32:52;0.73;;;0.73;;
7267;SDS011;3675;43.276;27.962;2022-07-18T15:35:20;0.88;;;0.88;;
7267;SDS011;3675;43.276;27.962;2022-07-18T15:37:46;0.57;;;0.50;;
7267;SDS011;3675;43.276;27.962;2022-07-18T15:40:12;0.35;;;0.30;;
7267;SDS011;3675;43.276;27.962;2022-07-18T15:42:47;1.08;;;0.45;;
7267;SDS011;3675;43.276;27.962;2022-07-18T15:45:12;0.50;;;0.50;;
7267;SDS011;3675;43.276;27.962;2022-07-18T15:47:41;0.47;;;0.47;;